sensor_id;sensor_type;location;lat;lon;timestamp;pressure;altitude;pressure_sealevel;temperature;humidity
50356;BME280;36264;51.296;-0.602;2022-11-20T00:01:13;100929.66;;;4.12;95.42
50356;BME280;36264;51.296;-0.602;2022-11-20T00:03:39;100930.50;;;4.14;95.46
50356;BME280;36264;51.296;-0.602;2022-11-20T00:06:09;100930.50;;;4.16;95.18
50356;BME280;36264;51.296;-0.602;2022-11-20T00:08:35;100929.63;;;4.15;95.75
50356;BME280;36264;51.296;-0.602;2022-11-20T00:11:09;100927.06;;;4.15;95.65
50356;BME280;36264;51.296;-0.602;2022-11-20T00:13:34;100915.91;;;4.18;96.00
50356;BME280;36264;51.296;-0.602;2022-11-20T00:16:02;100919.34;;;4.20;95.74
50356;BME280;36264;51.296;-0.602;2022-11-20T00:18:28;100902.22;;;4.21;95.62
50356;BME280;36264;51.296;-0.602;2022-11-20T00:21:00;100916.75;;;4.23;96.22
50356;BME280;36264;51.296;-0.602;2022-11-20T00:23:26;100916.75;;;4.25;95.92
50356;BME280;36264;51.296;-0.602;2022-11-20T00:25:51;100910.75;;;4.27;95.99
50356;BME280;36264;51.296;-0.602;2022-11-20T00:28:16;100906.47;;;4.29;96.17
50356;BME280;36264;51.296;-0.602;2022-11-20T00:30:42;100898.75;;;4.32;96.10
50356;BME280;36264;51.296;-0.602;2022-11-20T00:33:07;100896.16;;;4.35;95.91
50356;BME280;36264;51.296;-0.602;2022-11-20T00:35:32;100896.16;;;4.37;96.16
50356;BME280;36264;51.296;-0.602;2022-11-20T00:37:58;100897.00;;;4.39;96.05
50356;BME280;36264;51.296;-0.602;2022-11-20T00:40:23;100879.00;;;4.34;95.68
50356;BME280;36264;51.296;-0.602;2022-11-20T00:42:48;100887.59;;;4.38;95.83
50356;BME280;36264;51.296;-0.602;2022-11-20T00:45:14;100881.56;;;4.39;96.21
50356;BME280;36264;51.296;-0.602;2022-11-20T00:47:39;100879.88;;;4.38;95.87
50356;BME280;36264;51.296;-0.602;2022-11-20T00:50:04;100877.31;;;4.37;96.08
50356;BME280;36264;51.296;-0.602;2022-11-20T00:52:30;100872.16;;;4.37;96.29
50356;BME280;36264;51.296;-0.602;2022-11-20T00:54:55;100870.44;;;4.37;95.96
50356;BME280;36264;51.296;-0.602;2022-11-20T00:57:20;100867.88;;;4.37;96.05
50356;BME280;36264;51.296;-0.602;2022-11-20T00:59:46;100868.72;;;4.38;96.44
50356;BME280;36264;51.296;-0.602;2022-11-20T01:02:11;100868.72;;;4.38;96.25
50356;BME280;36264;51.296;-0.602;2022-11-20T01:04:36;100869.59;;;4.38;96.32
50356;BME280;36264;51.296;-0.602;2022-11-20T01:07:02;100866.16;;;4.39;97.04
50356;BME280;36264;51.296;-0.602;2022-11-20T01:09:27;100859.28;;;4.41;96.69
50356;BME280;36264;51.296;-0.602;2022-11-20T01:11:52;100852.41;;;4.45;96.72
50356;BME280;36264;51.296;-0.602;2022-11-20T01:14:19;100849.00;;;4.46;96.87
50356;BME280;36264;51.296;-0.602;2022-11-20T01:16:47;100852.41;;;4.48;96.65
50356;BME280;36264;51.296;-0.602;2022-11-20T01:19:17;100846.41;;;4.50;96.71
50356;BME280;36264;51.296;-0.602;2022-11-20T01:21:43;100838.66;;;4.52;96.94
50356;BME280;36264;51.296;-0.602;2022-11-20T01:24:14;100832.66;;;4.54;96.95
50356;BME280;36264;51.296;-0.602;2022-11-20T01:26:42;100836.06;;;4.57;97.15
50356;BME280;36264;51.296;-0.602;2022-11-20T01:29:13;100838.63;;;4.61;97.20
50356;BME280;36264;51.296;-0.602;2022-11-20T01:31:40;100840.31;;;4.64;97.17
50356;BME280;36264;51.296;-0.602;2022-11-20T01:34:08;100834.31;;;4.68;97.50
50356;BME280;36264;51.296;-0.602;2022-11-20T01:36:35;100827.44;;;4.71;97.44
50356;BME280;36264;51.296;-0.602;2022-11-20T01:39:04;100817.94;;;4.77;97.67
50356;BME280;36264;51.296;-0.602;2022-11-20T01:41:31;100811.06;;;4.80;97.59
50356;BME280;36264;51.296;-0.602;2022-11-20T01:44:19;100809.34;;;4.85;97.68
50356;BME280;36264;51.296;-0.602;2022-11-20T01:46:59;100809.31;;;4.88;97.73
50356;BME280;36264;51.296;-0.602;2022-11-20T01:49:36;100804.19;;;4.88;99.28
50356;BME280;36264;51.296;-0.602;2022-11-20T01:52:30;100796.38;;;4.93;98.71
50356;BME280;36264;51.296;-0.602;2022-11-20T01:55:04;100792.09;;;4.98;98.61
50356;BME280;36264;51.296;-0.602;2022-11-20T01:57:32;100780.91;;;5.01;98.23
50356;BME280;36264;51.296;-0.602;2022-11-20T02:00:05;100779.16;;;5.06;98.27
50356;BME280;36264;51.296;-0.602;2022-11-20T02:02:31;100777.44;;;5.05;99.73
50356;BME280;36264;51.296;-0.602;2022-11-20T02:05:00;100775.69;;;5.07;99.07
50356;BME280;36264;51.296;-0.602;2022-11-20T02:07:29;100773.94;;;5.11;98.82
50356;BME280;36264;51.296;-0.602;2022-11-20T02:09:55;100771.34;;;5.15;98.74
50356;BME280;36264;51.296;-0.602;2022-11-20T02:12:20;100773.03;;;5.19;98.79
50356;BME280;36264;51.296;-0.602;2022-11-20T02:15:04;100764.44;;;5.22;98.95
50356;BME280;36264;51.296;-0.602;2022-11-20T02:17:30;100765.25;;;5.25;98.98
50356;BME280;36264;51.296;-0.602;2022-11-20T02:19:55;100745.50;;;5.28;98.81
50356;BME280;36264;51.296;-0.602;2022-11-20T02:22:26;100748.91;;;5.30;99.01
50356;BME280;36264;51.296;-0.602;2022-11-20T02:24:53;100750.59;;;5.32;98.96
50356;BME280;36264;51.296;-0.602;2022-11-20T02:27:19;100748.84;;;5.34;99.23
50356;BME280;36264;51.296;-0.602;2022-11-20T02:32:20;100755.66;;;5.41;99.25
50356;BME280;36264;51.296;-0.602;2022-11-20T02:34:46;100753.09;;;5.41;99.34
50356;BME280;36264;51.296;-0.602;2022-11-20T02:37:12;100753.94;;;5.43;99.59
50356;BME280;36264;51.296;-0.602;2022-11-20T02:39:39;100751.31;;;5.47;99.90
50356;BME280;36264;51.296;-0.602;2022-11-20T02:42:05;100749.59;;;5.47;99.88
50356;BME280;36264;51.296;-0.602;2022-11-20T02:44:30;100750.47;;;5.46;99.80
50356;BME280;36264;51.296;-0.602;2022-11-20T02:46:59;100747.00;;;5.49;100.00
50356;BME280;36264;51.296;-0.602;2022-11-20T02:49:25;100742.72;;;5.51;100.00
50356;BME280;36264;51.296;-0.602;2022-11-20T02:51:50;100735.78;;;5.54;100.00
50356;BME280;36264;51.296;-0.602;2022-11-20T02:54:16;100733.19;;;5.56;100.00
50356;BME280;36264;51.296;-0.602;2022-11-20T02:56:41;100727.16;;;5.58;100.00
50356;BME280;36264;51.296;-0.602;2022-11-20T02:59:07;100725.41;;;5.60;100.00
50356;BME280;36264;51.296;-0.602;2022-11-20T03:01:32;100715.97;;;5.61;100.00
50356;BME280;36264;51.296;-0.602;2022-11-20T03:03:57;100711.63;;;5.65;100.00
50356;BME280;36264;51.296;-0.602;2022-11-20T03:06:23;100709.00;;;5.68;100.00
50356;BME280;36264;51.296;-0.602;2022-11-20T03:08:48;100708.97;;;5.71;100.00
50356;BME280;36264;51.296;-0.602;2022-11-20T03:11:13;100708.94;;;5.74;100.00
50356;BME280;36264;51.296;-0.602;2022-11-20T03:13:39;100697.75;;;5.76;100.00
50356;BME280;36264;51.296;-0.602;2022-11-20T03:16:12;100695.13;;;5.79;100.00
50356;BME280;36264;51.296;-0.602;2022-11-20T03:18:39;100691.69;;;5.82;100.00
50356;BME280;36264;51.296;-0.602;2022-11-20T03:21:05;100686.47;;;5.85;100.00
50356;BME280;36264;51.296;-0.602;2022-11-20T03:23:31;100682.19;;;5.86;100.00
50356;BME280;36264;51.296;-0.602;2022-11-20T03:26:17;100677.88;;;5.86;100.00
50356;BME280;36264;51.296;-0.602;2022-11-20T03:28:52;100670.13;;;5.88;100.00
50356;BME280;36264;51.296;-0.602;2022-11-20T03:31:20;100675.25;;;5.89;100.00
50356;BME280;36264;51.296;-0.602;2022-11-20T03:33:46;100667.53;;;5.89;100.00
50356;BME280;36264;51.296;-0.602;2022-11-20T03:36:13;100664.91;;;5.92;100.00
50356;BME280;36264;51.296;-0.602;2022-11-20T03:38:39;100658.00;;;5.93;100.00
50356;BME280;36264;51.296;-0.602;2022-11-20T03:41:11;100654.56;;;5.95;100.00
50356;BME280;36264;51.296;-0.602;2022-11-20T03:43:37;100652.81;;;5.97;100.00
50356;BME280;36264;51.296;-0.602;2022-11-20T03:46:03;100653.69;;;6.00;100.00
50356;BME280;36264;51.296;-0.602;2022-11-20T03:48:29;100644.19;;;6.02;100.00
50356;BME280;36264;51.296;-0.602;2022-11-20T03:51:33;100637.28;;;6.04;100.00
50356;BME280;36264;51.296;-0.602;2022-11-20T03:54:02;100624.44;;;6.01;100.00
50356;BME280;36264;51.296;-0.602;2022-11-20T03:56:29;100624.41;;;6.02;100.00
50356;BME280;36264;51.296;-0.602;2022-11-20T03:58:56;100621.81;;;6.02;100.00
50356;BME280;36264;51.296;-0.602;2022-11-20T04:01:25;100621.78;;;6.05;100.00
50356;BME280;36264;51.296;-0.602;2022-11-20T04:03:52;100616.59;;;6.07;100.00
50356;BME280;36264;51.296;-0.602;2022-11-20T04:06:26;100599.41;;;6.07;100.00
50356;BME280;36264;51.296;-0.602;2022-11-20T04:08:57;100596.78;;;6.10;100.00
50356;BME280;36264;51.296;-0.602;2022-11-20T04:11:28;100599.34;;;6.12;100.00
50356;BME280;36264;51.296;-0.602;2022-11-20T04:13:56;100597.59;;;6.14;100.00
50356;BME280;36264;51.296;-0.602;2022-11-20T04:16:24;100589.84;;;6.15;100.00
50356;BME280;36264;51.296;-0.602;2022-11-20T04:18:54;100582.94;;;6.18;100.00
50356;BME280;36264;51.296;-0.602;2022-11-20T04:21:19;100583.78;;;6.18;100.00
50356;BME280;36264;51.296;-0.602;2022-11-20T04:23:45;100572.56;;;6.21;100.00
50356;BME280;36264;51.296;-0.602;2022-11-20T04:26:11;100563.06;;;6.23;100.00
50356;BME280;36264;51.296;-0.602;2022-11-20T04:28:39;100557.91;;;6.23;100.00
50356;BME280;36264;51.296;-0.602;2022-11-20T04:31:10;100549.34;;;6.22;100.00
50356;BME280;36264;51.296;-0.602;2022-11-20T04:33:36;100558.72;;;6.25;100.00
50356;BME280;36264;51.296;-0.602;2022-11-20T04:36:04;100568.16;;;6.27;100.00
50356;BME280;36264;51.296;-0.602;2022-11-20T04:38:29;100562.97;;;6.29;100.00
50356;BME280;36264;51.296;-0.602;2022-11-20T04:41:04;100553.47;;;6.31;100.00
50356;BME280;36264;51.296;-0.602;2022-11-20T04:43:30;100555.16;;;6.33;100.00
50356;BME280;36264;51.296;-0.602;2022-11-20T04:45:57;100554.28;;;6.36;100.00
50356;BME280;36264;51.296;-0.602;2022-11-20T04:48:24;100546.53;;;6.36;100.00
50356;BME280;36264;51.296;-0.602;2022-11-20T04:50:50;100550.78;;;6.39;100.00
50356;BME280;36264;51.296;-0.602;2022-11-20T04:53:16;100551.66;;;6.39;100.00
50356;BME280;36264;51.296;-0.602;2022-11-20T04:55:42;100543.00;;;6.40;100.00
50356;BME280;36264;51.296;-0.602;2022-11-20T04:58:08;100544.75;;;6.40;100.00
50356;BME280;36264;51.296;-0.602;2022-11-20T05:00:33;100541.25;;;6.42;100.00
50356;BME280;36264;51.296;-0.602;2022-11-20T05:02:58;100535.22;;;6.43;100.00
50356;BME280;36264;51.296;-0.602;2022-11-20T05:05:24;100520.56;;;6.44;100.00
50356;BME280;36264;51.296;-0.602;2022-11-20T05:07:49;100517.94;;;6.47;100.00
50356;BME280;36264;51.296;-0.602;2022-11-20T05:10:15;100511.06;;;6.49;100.00
50356;BME280;36264;51.296;-0.602;2022-11-20T05:12:40;100510.13;;;6.51;100.00
50356;BME280;36264;51.296;-0.602;2022-11-20T05:15:06;100500.66;;;6.53;100.00
50356;BME280;36264;51.296;-0.602;2022-11-20T05:17:31;100501.47;;;6.56;100.00
50356;BME280;36264;51.296;-0.602;2022-11-20T05:19:56;100503.16;;;6.58;100.00
50356;BME280;36264;51.296;-0.602;2022-11-20T05:22:22;100507.38;;;6.61;100.00
50356;BME280;36264;51.296;-0.602;2022-11-20T05:24:47;100503.03;;;6.63;100.00
50356;BME280;36264;51.296;-0.602;2022-11-20T05:27:13;100496.13;;;6.65;100.00
50356;BME280;36264;51.296;-0.602;2022-11-20T05:29:38;100489.22;;;6.67;100.00
50356;BME280;36264;51.296;-0.602;2022-11-20T05:32:03;100477.13;;;6.69;100.00
50356;BME280;36264;51.296;-0.602;2022-11-20T05:34:31;100480.56;;;6.69;100.00
50356;BME280;36264;51.296;-0.602;2022-11-20T05:36:56;100483.97;;;6.71;100.00
50356;BME280;36264;51.296;-0.602;2022-11-20T05:39:22;100483.06;;;6.74;100.00
50356;BME280;36264;51.296;-0.602;2022-11-20T05:41:47;100477.00;;;6.75;100.00
50356;BME280;36264;51.296;-0.602;2022-11-20T05:44:32;100471.81;;;6.77;100.00
50356;BME280;36264;51.296;-0.602;2022-11-20T05:46:57;100474.31;;;6.80;100.00
50356;BME280;36264;51.296;-0.602;2022-11-20T05:49:23;100470.81;;;6.84;100.00
50356;BME280;36264;51.296;-0.602;2022-11-20T05:51:48;100461.31;;;6.86;100.00
50356;BME280;36264;51.296;-0.602;2022-11-20T05:54:13;100454.38;;;6.88;100.00
50356;BME280;36264;51.296;-0.602;2022-11-20T05:56:39;100444.88;;;6.90;100.00
50356;BME280;36264;51.296;-0.602;2022-11-20T05:59:05;100447.47;;;6.90;100.00
50356;BME280;36264;51.296;-0.602;2022-11-20T06:01:30;100443.97;;;6.91;100.00
50356;BME280;36264;51.296;-0.602;2022-11-20T06:03:56;100436.16;;;6.94;100.00
50356;BME280;36264;51.296;-0.602;2022-11-20T06:06:21;100436.97;;;6.96;100.00
50356;BME280;36264;51.296;-0.602;2022-11-20T06:08:48;100417.16;;;6.98;100.00
50356;BME280;36264;51.296;-0.602;2022-11-20T06:11:14;100417.09;;;7.01;100.00
50356;BME280;36264;51.296;-0.602;2022-11-20T06:13:41;100413.63;;;7.02;100.00
50356;BME280;36264;51.296;-0.602;2022-11-20T06:16:06;100404.09;;;7.06;100.00
50356;BME280;36264;51.296;-0.602;2022-11-20T06:18:32;100399.75;;;7.06;100.00
50356;BME280;36264;51.296;-0.602;2022-11-20T06:21:05;100396.28;;;7.09;100.00
50356;BME280;36264;51.296;-0.602;2022-11-20T06:23:32;100399.72;;;7.08;100.00
50356;BME280;36264;51.296;-0.602;2022-11-20T06:26:04;100387.63;;;7.10;100.00
50356;BME280;36264;51.296;-0.602;2022-11-20T06:28:30;100384.16;;;7.11;100.00
50356;BME280;36264;51.296;-0.602;2022-11-20T06:30:56;100390.09;;;7.15;100.00
50356;BME280;36264;51.296;-0.602;2022-11-20T06:33:22;100379.75;;;7.16;100.00
50356;BME280;36264;51.296;-0.602;2022-11-20T06:35:47;100377.13;;;7.18;100.00
50356;BME280;36264;51.296;-0.602;2022-11-20T06:38:12;100375.34;;;7.20;100.00
50356;BME280;36264;51.296;-0.602;2022-11-20T06:40:41;100383.94;;;7.22;100.00
50356;BME280;36264;51.296;-0.602;2022-11-20T06:43:08;100445.97;;;7.20;100.00
50356;BME280;36264;51.296;-0.602;2022-11-20T06:45:33;100455.59;;;7.12;100.00
50356;BME280;36264;51.296;-0.602;2022-11-20T06:47:58;100430.81;;;7.03;100.00
50356;BME280;36264;51.296;-0.602;2022-11-20T06:50:24;100415.41;;;6.99;100.00
50356;BME280;36264;51.296;-0.602;2022-11-20T06:52:49;100421.44;;;6.98;100.00
50356;BME280;36264;51.296;-0.602;2022-11-20T06:55:14;100420.66;;;6.96;100.00
50356;BME280;36264;51.296;-0.602;2022-11-20T06:57:40;100413.88;;;6.92;100.00
50356;BME280;36264;51.296;-0.602;2022-11-20T07:00:05;100417.28;;;6.92;100.00
50356;BME280;36264;51.296;-0.602;2022-11-20T07:02:31;100419.88;;;6.92;100.00
50356;BME280;36264;51.296;-0.602;2022-11-20T07:04:57;100418.97;;;6.95;100.00
50356;BME280;36264;51.296;-0.602;2022-11-20T07:07:22;100418.03;;;6.97;100.00
50356;BME280;36264;51.296;-0.602;2022-11-20T07:09:47;100419.75;;;6.98;100.00
50356;BME280;36264;51.296;-0.602;2022-11-20T07:12:13;100419.72;;;7.00;100.00
50356;BME280;36264;51.296;-0.602;2022-11-20T07:14:38;100419.75;;;6.98;100.00
50356;BME280;36264;51.296;-0.602;2022-11-20T07:17:03;100427.50;;;6.98;100.00
50356;BME280;36264;51.296;-0.602;2022-11-20T07:19:28;100428.34;;;6.99;100.00
50356;BME280;36264;51.296;-0.602;2022-11-20T07:21:54;100429.19;;;6.98;100.00
50356;BME280;36264;51.296;-0.602;2022-11-20T07:24:19;100422.38;;;6.95;100.00
50356;BME280;36264;51.296;-0.602;2022-11-20T07:26:47;100424.13;;;6.95;100.00
50356;BME280;36264;51.296;-0.602;2022-11-20T07:29:14;100431.91;;;6.93;100.00
50356;BME280;36264;51.296;-0.602;2022-11-20T07:31:41;100431.94;;;6.92;100.00
50356;BME280;36264;51.296;-0.602;2022-11-20T07:34:06;100437.13;;;6.90;100.00
50356;BME280;36264;51.296;-0.602;2022-11-20T07:36:32;100430.28;;;6.87;100.00
50356;BME280;36264;51.296;-0.602;2022-11-20T07:38:57;100429.47;;;6.85;100.00
50356;BME280;36264;51.296;-0.602;2022-11-20T07:41:22;100431.25;;;6.82;100.00
50356;BME280;36264;51.296;-0.602;2022-11-20T07:43:48;100437.34;;;6.79;100.00
50356;BME280;36264;51.296;-0.602;2022-11-20T07:46:13;100431.41;;;6.76;100.00
50356;BME280;36264;51.296;-0.602;2022-11-20T07:48:39;100434.06;;;6.71;100.00
50356;BME280;36264;51.296;-0.602;2022-11-20T07:51:04;100444.50;;;6.66;100.00
50356;BME280;36264;51.296;-0.602;2022-11-20T07:53:30;100448.84;;;6.63;100.00
50356;BME280;36264;51.296;-0.602;2022-11-20T07:55:59;100457.50;;;6.60;100.00
50356;BME280;36264;51.296;-0.602;2022-11-20T07:58:25;100454.13;;;6.58;100.00
50356;BME280;36264;51.296;-0.602;2022-11-20T08:00:50;100459.31;;;6.57;100.00
50356;BME280;36264;51.296;-0.602;2022-11-20T08:03:15;100466.97;;;6.60;100.00
50356;BME280;36264;51.296;-0.602;2022-11-20T08:05:41;100467.84;;;6.60;100.00
50356;BME280;36264;51.296;-0.602;2022-11-20T08:08:06;100478.94;;;6.64;100.00
50356;BME280;36264;51.296;-0.602;2022-11-20T08:10:32;100483.22;;;6.65;100.00
50356;BME280;36264;51.296;-0.602;2022-11-20T08:12:58;100488.38;;;6.66;100.00
50356;BME280;36264;51.296;-0.602;2022-11-20T08:15:48;100496.09;;;6.66;100.00
50356;BME280;36264;51.296;-0.602;2022-11-20T08:18:15;100501.31;;;6.63;100.00
50356;BME280;36264;51.296;-0.602;2022-11-20T08:20:40;100504.75;;;6.64;100.00
50356;BME280;36264;51.296;-0.602;2022-11-20T08:23:07;100505.59;;;6.64;100.00
50356;BME280;36264;51.296;-0.602;2022-11-20T08:25:34;100498.75;;;6.63;100.00
50356;BME280;36264;51.296;-0.602;2022-11-20T08:28:01;100497.84;;;6.64;100.00
50356;BME280;36264;51.296;-0.602;2022-11-20T08:30:27;100503.94;;;6.62;100.00
50356;BME280;36264;51.296;-0.602;2022-11-20T08:32:54;100509.13;;;6.60;100.00
50356;BME280;36264;51.296;-0.602;2022-11-20T08:35:20;100511.72;;;6.59;100.00
50356;BME280;36264;51.296;-0.602;2022-11-20T08:37:48;100516.06;;;6.57;100.00
50356;BME280;36264;51.296;-0.602;2022-11-20T08:40:15;100522.91;;;6.58;100.00
50356;BME280;36264;51.296;-0.602;2022-11-20T08:42:50;100522.00;;;6.62;100.00
50356;BME280;36264;51.296;-0.602;2022-11-20T08:45:16;100520.22;;;6.64;100.00
50356;BME280;36264;51.296;-0.602;2022-11-20T08:47:42;100528.72;;;6.69;100.00
50356;BME280;36264;51.296;-0.602;2022-11-20T08:50:09;100532.06;;;6.76;100.00
50356;BME280;36264;51.296;-0.602;2022-11-20T08:52:34;100538.81;;;6.83;100.00
50356;BME280;36264;51.296;-0.602;2022-11-20T08:55:00;100536.13;;;6.89;100.00
50356;BME280;36264;51.296;-0.602;2022-11-20T08:57:25;100527.41;;;6.95;100.00
50356;BME280;36264;51.296;-0.602;2022-11-20T08:59:51;100517.81;;;7.01;100.00
50356;BME280;36264;51.296;-0.602;2022-11-20T09:02:16;100526.38;;;7.03;100.00
50356;BME280;36264;51.296;-0.602;2022-11-20T09:04:41;100520.34;;;7.04;100.00
50356;BME280;36264;51.296;-0.602;2022-11-20T09:07:07;100519.47;;;7.04;100.00
50356;BME280;36264;51.296;-0.602;2022-11-20T09:09:32;100526.34;;;7.05;100.00
50356;BME280;36264;51.296;-0.602;2022-11-20T09:11:58;100537.56;;;7.02;100.00
50356;BME280;36264;51.296;-0.602;2022-11-20T09:14:23;100545.34;;;7.01;100.00
50356;BME280;36264;51.296;-0.602;2022-11-20T09:16:56;100533.38;;;6.97;100.00
50356;BME280;36264;51.296;-0.602;2022-11-20T09:19:23;100541.97;;;6.97;100.00
50356;BME280;36264;51.296;-0.602;2022-11-20T09:21:49;100551.50;;;6.95;100.00
50356;BME280;36264;51.296;-0.602;2022-11-20T09:24:15;100560.06;;;6.97;100.00
50356;BME280;36264;51.296;-0.602;2022-11-20T09:26:40;100564.31;;;7.00;100.00
50356;BME280;36264;51.296;-0.602;2022-11-20T09:29:05;100556.50;;;7.03;100.00
50356;BME280;36264;51.296;-0.602;2022-11-20T09:31:31;100565.91;;;7.05;100.00
50356;BME280;36264;51.296;-0.602;2022-11-20T09:33:56;100564.16;;;7.07;100.00
50356;BME280;36264;51.296;-0.602;2022-11-20T09:36:21;100549.56;;;7.05;100.00
50356;BME280;36264;51.296;-0.602;2022-11-20T09:38:47;100542.66;;;7.05;100.00
50356;BME280;36264;51.296;-0.602;2022-11-20T09:47:01;100546.09;;;7.07;100.00
50356;BME280;36264;51.296;-0.602;2022-11-20T09:52:22;100545.09;;;7.13;100.00
50356;BME280;36264;51.296;-0.602;2022-11-20T09:54:52;100542.50;;;7.15;100.00
50356;BME280;36264;51.296;-0.602;2022-11-20T09:57:21;100543.28;;;7.18;100.00
50356;BME280;36264;51.296;-0.602;2022-11-20T09:59:54;100551.84;;;7.22;100.00
50356;BME280;36264;51.296;-0.602;2022-11-20T10:05:21;100536.34;;;7.22;100.00
50356;BME280;36264;51.296;-0.602;2022-11-20T10:07:55;100544.09;;;7.22;100.00
50356;BME280;36264;51.296;-0.602;2022-11-20T10:10:34;100542.34;;;7.22;100.00
50356;BME280;36264;51.296;-0.602;2022-11-20T10:15:46;100545.66;;;7.28;100.00
50356;BME280;36264;51.296;-0.602;2022-11-20T10:21:08;100547.25;;;7.35;100.00
50356;BME280;36264;51.296;-0.602;2022-11-20T10:29:19;100555.75;;;7.40;100.00
50356;BME280;36264;51.296;-0.602;2022-11-20T10:31:56;100558.38;;;7.38;100.00
50356;BME280;36264;51.296;-0.602;2022-11-20T10:37:12;100564.41;;;7.37;100.00
50356;BME280;36264;51.296;-0.602;2022-11-20T10:42:17;100573.09;;;7.35;100.00
50356;BME280;36264;51.296;-0.602;2022-11-20T10:44:55;100568.78;;;7.35;100.00
50356;BME280;36264;51.296;-0.602;2022-11-20T10:47:27;100572.16;;;7.37;100.00
50356;BME280;36264;51.296;-0.602;2022-11-20T10:49:55;100566.91;;;7.42;100.00
50356;BME280;36264;51.296;-0.602;2022-11-20T10:52:51;100571.94;;;7.48;100.00
50356;BME280;36264;51.296;-0.602;2022-11-20T10:55:40;100570.97;;;7.54;100.00
50356;BME280;36264;51.296;-0.602;2022-11-20T11:00:37;100572.44;;;7.66;100.00
50356;BME280;36264;51.296;-0.602;2022-11-20T11:03:20;100567.16;;;7.70;100.00
50356;BME280;36264;51.296;-0.602;2022-11-20T11:06:02;100561.94;;;7.73;100.00
50356;BME280;36264;51.296;-0.602;2022-11-20T11:08:37;100561.00;;;7.77;100.00
50356;BME280;36264;51.296;-0.602;2022-11-20T11:11:28;100567.75;;;7.83;100.00
50356;BME280;36264;51.296;-0.602;2022-11-20T11:14:14;100560.78;;;7.87;100.00
50356;BME280;36264;51.296;-0.602;2022-11-20T11:19:14;100559.75;;;7.94;100.00
50356;BME280;36264;51.296;-0.602;2022-11-20T11:21:52;100557.06;;;7.98;100.00
50356;BME280;36264;51.296;-0.602;2022-11-20T11:24:26;100554.34;;;8.05;100.00
50356;BME280;36264;51.296;-0.602;2022-11-20T11:27:00;100545.66;;;8.07;100.00
50356;BME280;36264;51.296;-0.602;2022-11-20T11:29:30;100553.25;;;8.13;100.00
50356;BME280;36264;51.296;-0.602;2022-11-20T11:32:10;100547.06;;;8.21;100.00
50356;BME280;36264;51.296;-0.602;2022-11-20T11:34:36;100559.03;;;8.25;100.00
50356;BME280;36264;51.296;-0.602;2022-11-20T11:37:02;100550.25;;;8.30;100.00
50356;BME280;36264;51.296;-0.602;2022-11-20T11:39:30;100559.63;;;8.36;100.00
50356;BME280;36264;51.296;-0.602;2022-11-20T11:41:57;100553.47;;;8.40;100.00
50356;BME280;36264;51.296;-0.602;2022-11-20T11:44:31;100555.06;;;8.47;100.00
50356;BME280;36264;51.296;-0.602;2022-11-20T11:47:24;100559.19;;;8.53;100.00
50356;BME280;36264;51.296;-0.602;2022-11-20T11:55:04;100558.84;;;8.67;100.00
50356;BME280;36264;51.296;-0.602;2022-11-20T12:00:16;100556.19;;;8.70;100.00
50356;BME280;36264;51.296;-0.602;2022-11-20T12:05:47;100555.94;;;8.79;100.00
50356;BME280;36264;51.296;-0.602;2022-11-20T12:08:24;100556.75;;;8.81;100.00
50356;BME280;36264;51.296;-0.602;2022-11-20T12:11:04;100549.84;;;8.82;100.00
50356;BME280;36264;51.296;-0.602;2022-11-20T12:16:00;100557.38;;;8.89;100.00
50356;BME280;36264;51.296;-0.602;2022-11-20T12:18:27;100557.38;;;8.89;100.00
50356;BME280;36264;51.296;-0.602;2022-11-20T12:23:27;100556.50;;;8.91;100.00
50356;BME280;36264;51.296;-0.602;2022-11-20T12:25:56;100555.59;;;8.93;100.00
50356;BME280;36264;51.296;-0.602;2022-11-20T12:28:33;100554.72;;;8.93;100.00
50356;BME280;36264;51.296;-0.602;2022-11-20T12:31:37;100559.84;;;8.94;100.00
50356;BME280;36264;51.296;-0.602;2022-11-20T12:39:25;100558.94;;;8.97;100.00
50356;BME280;36264;51.296;-0.602;2022-11-20T12:42:23;100559.72;;;8.99;100.00
50356;BME280;36264;51.296;-0.602;2022-11-20T12:45:32;100565.47;;;9.10;100.00
50356;BME280;36264;51.296;-0.602;2022-11-20T12:53:49;100562.09;;;9.38;99.99
50356;BME280;36264;51.296;-0.602;2022-11-20T12:56:45;100547.53;;;9.34;97.15
50356;BME280;36264;51.296;-0.602;2022-11-20T13:02:18;100554.59;;;9.29;96.40
50356;BME280;36264;51.296;-0.602;2022-11-20T13:07:42;100562.31;;;9.30;97.14
50356;BME280;36264;51.296;-0.602;2022-11-20T13:10:38;100556.16;;;9.34;96.39
50356;BME280;36264;51.296;-0.602;2022-11-20T13:13:13;100568.22;;;9.35;93.69
50356;BME280;36264;51.296;-0.602;2022-11-20T13:18:11;100567.69;;;9.54;98.87
50356;BME280;36264;51.296;-0.602;2022-11-20T13:20:44;100557.09;;;9.61;98.81
50356;BME280;36264;51.296;-0.602;2022-11-20T13:23:10;100556.13;;;9.64;99.15
50356;BME280;36264;51.296;-0.602;2022-11-20T13:25:39;100569.00;;;9.67;99.11
50356;BME280;36264;51.296;-0.602;2022-11-20T13:28:28;100569.00;;;9.67;94.80
50356;BME280;36264;51.296;-0.602;2022-11-20T13:30:57;100562.97;;;9.67;96.45
50356;BME280;36264;51.296;-0.602;2022-11-20T13:33:25;100564.78;;;9.65;96.28
50356;BME280;36264;51.296;-0.602;2022-11-20T13:36:00;100569.91;;;9.66;94.71
50356;BME280;36264;51.296;-0.602;2022-11-20T13:38:26;100562.09;;;9.68;96.90
50356;BME280;36264;51.296;-0.602;2022-11-20T13:40:55;100556.88;;;9.69;96.64
50356;BME280;36264;51.296;-0.602;2022-11-20T13:43:34;100551.59;;;9.72;97.98
50356;BME280;36264;51.296;-0.602;2022-11-20T13:46:03;100545.53;;;9.72;98.14
50356;BME280;36264;51.296;-0.602;2022-11-20T13:48:32;100535.06;;;9.75;98.93
50356;BME280;36264;51.296;-0.602;2022-11-20T13:51:15;100529.00;;;9.76;98.97
50356;BME280;36264;51.296;-0.602;2022-11-20T13:54:01;100523.84;;;9.74;99.02
50356;BME280;36264;51.296;-0.602;2022-11-20T14:02:21;100463.34;;;9.74;99.90
50356;BME280;36264;51.296;-0.602;2022-11-20T14:04:51;100451.22;;;9.74;100.00
50356;BME280;36264;51.296;-0.602;2022-11-20T14:07:19;100453.88;;;9.73;100.00
50356;BME280;36264;51.296;-0.602;2022-11-20T14:09:56;100506.63;;;9.72;100.00